Terminal Aerodrome Forecast
Issued by NWS Wilmington, OH

Home | Current Version | Previous Version | Text Only | Print | Product List | Glossary On
Versions: 1 2 3 4 5 6 7 8 9 10 11 12 13 14 15 16 17 18 19 20 21 22 23 24 25 26
000
FTUS41 KILN 221700
TAFCVG
TAF
KCVG 221738Z 2218/2324 13010KT P6SM SCT040 BKN200
      TEMPO 2218/2220 BKN040
     FM222000 12011KT P6SM SCT030 BKN040
      TEMPO 2222/2302 OVC030
     FM230200 14012KT P6SM VCSH SCT015 OVC030
     FM230800 15011KT P6SM -SHRA OVC019
      TEMPO 2308/2312 3SM -SHRA OVC008
     FM231200 18010KT P6SM VCSH OVC015
      TEMPO 2314/2316 2SM -SHRA OVC008
     FM231600 18006KT P6SM VCSH OVC010=

USA.gov is the U.S. government's official web portal to all federal, state and local government web resources and services.